sensor_id;sensor_type;location;lat;lon;timestamp;temperature;humidity
7970;DHT22;4030;52.362;9.206;2022-09-14T00:01:18;19.70;55.80
7970;DHT22;4030;52.362;9.206;2022-09-14T00:03:45;19.70;55.80
7970;DHT22;4030;52.362;9.206;2022-09-14T00:06:13;19.70;55.90
7970;DHT22;4030;52.362;9.206;2022-09-14T00:08:40;19.80;56.00
7970;DHT22;4030;52.362;9.206;2022-09-14T00:11:11;19.80;56.00
7970;DHT22;4030;52.362;9.206;2022-09-14T00:13:42;19.70;56.00
7970;DHT22;4030;52.362;9.206;2022-09-14T00:16:14;19.60;55.90
7970;DHT22;4030;52.362;9.206;2022-09-14T00:18:48;19.70;56.00
7970;DHT22;4030;52.362;9.206;2022-09-14T00:21:14;19.60;56.00
7970;DHT22;4030;52.362;9.206;2022-09-14T00:23:40;19.50;55.90
7970;DHT22;4030;52.362;9.206;2022-09-14T00:26:12;19.60;56.00
7970;DHT22;4030;52.362;9.206;2022-09-14T00:28:42;19.50;55.90
7970;DHT22;4030;52.362;9.206;2022-09-14T00:31:10;19.50;55.90
7970;DHT22;4030;52.362;9.206;2022-09-14T00:33:36;19.40;55.90
7970;DHT22;4030;52.362;9.206;2022-09-14T00:36:10;19.40;55.90
7970;DHT22;4030;52.362;9.206;2022-09-14T00:38:39;19.50;56.00
7970;DHT22;4030;52.362;9.206;2022-09-14T00:41:07;19.60;56.20
7970;DHT22;4030;52.362;9.206;2022-09-14T00:46:23;19.40;56.00
7970;DHT22;4030;52.362;9.206;2022-09-14T00:51:18;19.50;56.10
7970;DHT22;4030;52.362;9.206;2022-09-14T00:56:11;19.40;56.20
7970;DHT22;4030;52.362;9.206;2022-09-14T01:03:34;19.20;56.10
7970;DHT22;4030;52.362;9.206;2022-09-14T01:09:13;19.00;56.10
7970;DHT22;4030;52.362;9.206;2022-09-14T01:12:08;19.30;56.40
7970;DHT22;4030;52.362;9.206;2022-09-14T01:17:40;19.10;56.20
7970;DHT22;4030;52.362;9.206;2022-09-14T01:20:28;19.20;56.40
7970;DHT22;4030;52.362;9.206;2022-09-14T01:23:25;19.00;56.30
7970;DHT22;4030;52.362;9.206;2022-09-14T01:26:17;19.20;56.50
7970;DHT22;4030;52.362;9.206;2022-09-14T01:32:06;19.10;56.40
7970;DHT22;4030;52.362;9.206;2022-09-14T01:34:45;18.80;56.30
7970;DHT22;4030;52.362;9.206;2022-09-14T01:40:32;18.80;56.30
7970;DHT22;4030;52.362;9.206;2022-09-14T01:43:12;19.10;56.70
7970;DHT22;4030;52.362;9.206;2022-09-14T01:45:47;19.10;56.70
7970;DHT22;4030;52.362;9.206;2022-09-14T01:48:18;19.00;56.60
7970;DHT22;4030;52.362;9.206;2022-09-14T01:50:50;19.00;56.70
7970;DHT22;4030;52.362;9.206;2022-09-14T01:54:24;19.00;56.70
7970;DHT22;4030;52.362;9.206;2022-09-14T01:56:47;19.10;56.70
7970;DHT22;4030;52.362;9.206;2022-09-14T01:59:29;19.00;56.70
7970;DHT22;4030;52.362;9.206;2022-09-14T02:05:09;19.00;56.80
7970;DHT22;4030;52.362;9.206;2022-09-14T02:07:36;18.90;56.70
7970;DHT22;4030;52.362;9.206;2022-09-14T02:10:05;18.90;56.80
7970;DHT22;4030;52.362;9.206;2022-09-14T02:12:33;18.90;56.80
7970;DHT22;4030;52.362;9.206;2022-09-14T02:14:59;18.70;56.70
7970;DHT22;4030;52.362;9.206;2022-09-14T02:17:25;18.50;56.60
7970;DHT22;4030;52.362;9.206;2022-09-14T02:19:55;18.70;56.80
7970;DHT22;4030;52.362;9.206;2022-09-14T02:22:23;18.60;56.70
7970;DHT22;4030;52.362;9.206;2022-09-14T02:24:50;18.80;56.90
7970;DHT22;4030;52.362;9.206;2022-09-14T02:32:30;18.70;56.80
7970;DHT22;4030;52.362;9.206;2022-09-14T02:35:24;18.70;56.80
7970;DHT22;4030;52.362;9.206;2022-09-14T02:38:09;18.60;56.80
7970;DHT22;4030;52.362;9.206;2022-09-14T02:47:02;18.60;56.90
7970;DHT22;4030;52.362;9.206;2022-09-14T02:49:58;18.70;57.10
7970;DHT22;4030;52.362;9.206;2022-09-14T02:53:03;18.40;56.90
7970;DHT22;4030;52.362;9.206;2022-09-14T02:55:36;18.50;56.90
7970;DHT22;4030;52.362;9.206;2022-09-14T02:58:08;18.80;57.20
7970;DHT22;4030;52.362;9.206;2022-09-14T03:00:39;18.50;57.00
7970;DHT22;4030;52.362;9.206;2022-09-14T03:03:11;18.30;56.90
7970;DHT22;4030;52.362;9.206;2022-09-14T03:05:38;18.50;57.00
7970;DHT22;4030;52.362;9.206;2022-09-14T03:08:04;18.30;56.90
7970;DHT22;4030;52.362;9.206;2022-09-14T03:10:31;18.40;57.00
7970;DHT22;4030;52.362;9.206;2022-09-14T03:12:57;18.70;57.30
7970;DHT22;4030;52.362;9.206;2022-09-14T03:15:23;18.50;57.10
7970;DHT22;4030;52.362;9.206;2022-09-14T03:17:50;18.50;57.10
7970;DHT22;4030;52.362;9.206;2022-09-14T03:20:19;18.40;57.00
7970;DHT22;4030;52.362;9.206;2022-09-14T03:22:47;18.40;57.00
7970;DHT22;4030;52.362;9.206;2022-09-14T03:25:13;18.60;57.30
7970;DHT22;4030;52.362;9.206;2022-09-14T03:27:40;18.40;57.10
7970;DHT22;4030;52.362;9.206;2022-09-14T03:30:07;18.20;57.00
7970;DHT22;4030;52.362;9.206;2022-09-14T03:32:33;18.20;57.00
7970;DHT22;4030;52.362;9.206;2022-09-14T03:34:59;18.40;57.20
7970;DHT22;4030;52.362;9.206;2022-09-14T03:37:25;18.40;57.20
7970;DHT22;4030;52.362;9.206;2022-09-14T03:39:51;18.50;57.30
7970;DHT22;4030;52.362;9.206;2022-09-14T03:42:17;18.40;57.20
7970;DHT22;4030;52.362;9.206;2022-09-14T03:54:28;18.10;57.10
7970;DHT22;4030;52.362;9.206;2022-09-14T03:56:54;18.30;57.20
7970;DHT22;4030;52.362;9.206;2022-09-14T03:59:19;18.20;57.10
7970;DHT22;4030;52.362;9.206;2022-09-14T04:01:46;18.10;57.00
7970;DHT22;4030;52.362;9.206;2022-09-14T04:09:04;18.20;57.10
7970;DHT22;4030;52.362;9.206;2022-09-14T04:14:00;18.10;57.00
7970;DHT22;4030;52.362;9.206;2022-09-14T04:16:27;18.10;57.10
7970;DHT22;4030;52.362;9.206;2022-09-14T04:18:53;18.20;57.20
7970;DHT22;4030;52.362;9.206;2022-09-14T04:21:21;18.10;57.20
7970;DHT22;4030;52.362;9.206;2022-09-14T04:23:51;18.10;57.10
7970;DHT22;4030;52.362;9.206;2022-09-14T04:26:19;18.10;57.20
7970;DHT22;4030;52.362;9.206;2022-09-14T04:28:45;18.00;57.00
7970;DHT22;4030;52.362;9.206;2022-09-14T04:31:12;17.90;57.00
7970;DHT22;4030;52.362;9.206;2022-09-14T04:33:40;17.90;57.00
7970;DHT22;4030;52.362;9.206;2022-09-14T04:36:09;17.80;56.90
7970;DHT22;4030;52.362;9.206;2022-09-14T04:38:37;18.00;57.00
7970;DHT22;4030;52.362;9.206;2022-09-14T04:41:08;17.80;57.00
7970;DHT22;4030;52.362;9.206;2022-09-14T04:43:38;17.80;57.00
7970;DHT22;4030;52.362;9.206;2022-09-14T04:46:06;17.90;57.10
7970;DHT22;4030;52.362;9.206;2022-09-14T04:51:09;17.80;57.00
7970;DHT22;4030;52.362;9.206;2022-09-14T04:53:38;18.00;57.20
7970;DHT22;4030;52.362;9.206;2022-09-14T04:56:06;17.70;57.00
7970;DHT22;4030;52.362;9.206;2022-09-14T04:58:34;17.90;57.00
7970;DHT22;4030;52.362;9.206;2022-09-14T05:01:08;17.70;57.00
7970;DHT22;4030;52.362;9.206;2022-09-14T05:03:36;17.90;57.20
7970;DHT22;4030;52.362;9.206;2022-09-14T05:06:09;17.80;57.00
7970;DHT22;4030;52.362;9.206;2022-09-14T05:08:36;17.90;57.20
7970;DHT22;4030;52.362;9.206;2022-09-14T05:11:07;17.90;57.30
7970;DHT22;4030;52.362;9.206;2022-09-14T05:13:34;17.80;57.20
7970;DHT22;4030;52.362;9.206;2022-09-14T05:16:07;17.60;57.00
7970;DHT22;4030;52.362;9.206;2022-09-14T05:18:35;17.80;57.30
7970;DHT22;4030;52.362;9.206;2022-09-14T05:21:03;17.60;57.20
7970;DHT22;4030;52.362;9.206;2022-09-14T05:23:30;17.80;57.30
7970;DHT22;4030;52.362;9.206;2022-09-14T05:28:23;17.60;57.30
7970;DHT22;4030;52.362;9.206;2022-09-14T05:33:16;17.80;57.50
7970;DHT22;4030;52.362;9.206;2022-09-14T05:47:52;17.70;57.80
7970;DHT22;4030;52.362;9.206;2022-09-14T05:50:18;17.50;57.60
7970;DHT22;4030;52.362;9.206;2022-09-14T05:52:43;17.50;57.60
7970;DHT22;4030;52.362;9.206;2022-09-14T05:55:09;17.70;57.90
7970;DHT22;4030;52.362;9.206;2022-09-14T05:57:35;17.50;57.70
7970;DHT22;4030;52.362;9.206;2022-09-14T06:02:27;17.50;57.80
7970;DHT22;4030;52.362;9.206;2022-09-14T06:04:53;17.50;57.80
7970;DHT22;4030;52.362;9.206;2022-09-14T06:14:39;17.50;58.10
7970;DHT22;4030;52.362;9.206;2022-09-14T06:41:27;17.70;58.70
7970;DHT22;4030;52.362;9.206;2022-09-14T06:43:56;17.70;58.90
7970;DHT22;4030;52.362;9.206;2022-09-14T06:46:26;17.80;59.00
7970;DHT22;4030;52.362;9.206;2022-09-14T06:48:59;17.60;58.90
7970;DHT22;4030;52.362;9.206;2022-09-14T06:51:43;17.60;58.90
7970;DHT22;4030;52.362;9.206;2022-09-14T06:54:13;18.00;59.20
7970;DHT22;4030;52.362;9.206;2022-09-14T06:56:41;17.90;59.10
7970;DHT22;4030;52.362;9.206;2022-09-14T06:59:10;17.80;59.00
7970;DHT22;4030;52.362;9.206;2022-09-14T07:01:39;17.90;59.20
7970;DHT22;4030;52.362;9.206;2022-09-14T07:04:05;17.80;59.10
7970;DHT22;4030;52.362;9.206;2022-09-14T07:06:40;17.90;59.20
7970;DHT22;4030;52.362;9.206;2022-09-14T07:09:10;17.60;59.00
7970;DHT22;4030;52.362;9.206;2022-09-14T07:11:36;18.00;59.40
7970;DHT22;4030;52.362;9.206;2022-09-14T07:14:03;17.90;59.20
7970;DHT22;4030;52.362;9.206;2022-09-14T07:16:30;18.00;59.50
7970;DHT22;4030;52.362;9.206;2022-09-14T07:18:59;18.00;59.20
7970;DHT22;4030;52.362;9.206;2022-09-14T07:21:26;18.00;58.90
7970;DHT22;4030;52.362;9.206;2022-09-14T07:23:52;18.00;58.60
7970;DHT22;4030;52.362;9.206;2022-09-14T07:26:24;17.90;58.40
7970;DHT22;4030;52.362;9.206;2022-09-14T07:28:57;18.10;58.40
7970;DHT22;4030;52.362;9.206;2022-09-14T07:31:28;18.10;58.50
7970;DHT22;4030;52.362;9.206;2022-09-14T07:34:00;18.10;58.70
7970;DHT22;4030;52.362;9.206;2022-09-14T07:38:54;18.30;59.40
7970;DHT22;4030;52.362;9.206;2022-09-14T07:41:22;18.10;59.50
7970;DHT22;4030;52.362;9.206;2022-09-14T07:43:54;18.30;59.60
7970;DHT22;4030;52.362;9.206;2022-09-14T07:46:22;18.20;59.70
7970;DHT22;4030;52.362;9.206;2022-09-14T07:48:53;18.10;59.80
7970;DHT22;4030;52.362;9.206;2022-09-14T07:51:23;18.40;60.10
7970;DHT22;4030;52.362;9.206;2022-09-14T07:58:42;18.40;60.50
7970;DHT22;4030;52.362;9.206;2022-09-14T08:01:14;18.30;60.60
7970;DHT22;4030;52.362;9.206;2022-09-14T08:03:42;18.50;60.80
7970;DHT22;4030;52.362;9.206;2022-09-14T08:08:43;18.40;61.00
7970;DHT22;4030;52.362;9.206;2022-09-14T08:11:18;18.60;61.20
7970;DHT22;4030;52.362;9.206;2022-09-14T08:13:59;18.70;61.40
7970;DHT22;4030;52.362;9.206;2022-09-14T08:16:28;18.60;61.20
7970;DHT22;4030;52.362;9.206;2022-09-14T08:18:56;18.70;61.30
7970;DHT22;4030;52.362;9.206;2022-09-14T08:21:28;18.70;61.30
7970;DHT22;4030;52.362;9.206;2022-09-14T08:23:55;18.90;61.80
7970;DHT22;4030;52.362;9.206;2022-09-14T08:26:27;18.90;61.90
7970;DHT22;4030;52.362;9.206;2022-09-14T08:28:54;19.00;62.00
7970;DHT22;4030;52.362;9.206;2022-09-14T08:31:22;19.00;62.00
7970;DHT22;4030;52.362;9.206;2022-09-14T08:33:57;19.00;61.90
7970;DHT22;4030;52.362;9.206;2022-09-14T08:36:28;19.10;62.10
7970;DHT22;4030;52.362;9.206;2022-09-14T08:38:55;19.00;62.00
7970;DHT22;4030;52.362;9.206;2022-09-14T08:41:28;19.20;62.20
7970;DHT22;4030;52.362;9.206;2022-09-14T08:44:01;19.30;62.50
7970;DHT22;4030;52.362;9.206;2022-09-14T08:46:33;19.20;62.20
7970;DHT22;4030;52.362;9.206;2022-09-14T08:49:02;19.40;62.40
7970;DHT22;4030;52.362;9.206;2022-09-14T08:51:30;19.60;62.60
7970;DHT22;4030;52.362;9.206;2022-09-14T08:53:57;19.60;62.50
7970;DHT22;4030;52.362;9.206;2022-09-14T08:56:28;19.50;62.20
7970;DHT22;4030;52.362;9.206;2022-09-14T08:59:17;19.60;62.40
7970;DHT22;4030;52.362;9.206;2022-09-14T09:04:51;19.60;62.10
7970;DHT22;4030;52.362;9.206;2022-09-14T09:10:25;19.70;62.00
7970;DHT22;4030;52.362;9.206;2022-09-14T09:12:54;19.80;62.10
7970;DHT22;4030;52.362;9.206;2022-09-14T09:15:31;19.80;62.10
7970;DHT22;4030;52.362;9.206;2022-09-14T09:18:11;19.90;62.10
7970;DHT22;4030;52.362;9.206;2022-09-14T09:20:50;19.90;62.10
7970;DHT22;4030;52.362;9.206;2022-09-14T09:23:18;20.00;62.10
7970;DHT22;4030;52.362;9.206;2022-09-14T09:25:58;20.00;61.90
7970;DHT22;4030;52.362;9.206;2022-09-14T09:28:26;20.10;62.10
7970;DHT22;4030;52.362;9.206;2022-09-14T09:30:54;20.10;61.90
7970;DHT22;4030;52.362;9.206;2022-09-14T09:33:25;20.10;62.00
7970;DHT22;4030;52.362;9.206;2022-09-14T09:35:52;20.20;62.20
7970;DHT22;4030;52.362;9.206;2022-09-14T09:38:21;20.10;62.00
7970;DHT22;4030;52.362;9.206;2022-09-14T09:41:20;20.30;62.10
7970;DHT22;4030;52.362;9.206;2022-09-14T09:46:32;20.30;61.70
7970;DHT22;4030;52.362;9.206;2022-09-14T09:49:03;20.40;61.70
7970;DHT22;4030;52.362;9.206;2022-09-14T09:51:40;20.40;61.60
7970;DHT22;4030;52.362;9.206;2022-09-14T09:56:40;20.50;61.40
7970;DHT22;4030;52.362;9.206;2022-09-14T09:59:41;20.40;61.30
7970;DHT22;4030;52.362;9.206;2022-09-14T10:02:28;20.60;61.30
7970;DHT22;4030;52.362;9.206;2022-09-14T10:05:01;20.70;61.20
7970;DHT22;4030;52.362;9.206;2022-09-14T10:07:55;20.60;61.00
7970;DHT22;4030;52.362;9.206;2022-09-14T10:10:42;20.60;60.80
7970;DHT22;4030;52.362;9.206;2022-09-14T10:13:32;20.70;60.90
7970;DHT22;4030;52.362;9.206;2022-09-14T10:16:14;20.60;60.60
7970;DHT22;4030;52.362;9.206;2022-09-14T10:18:46;20.60;60.50
7970;DHT22;4030;52.362;9.206;2022-09-14T10:21:15;20.70;60.60
7970;DHT22;4030;52.362;9.206;2022-09-14T10:23:43;20.70;60.40
7970;DHT22;4030;52.362;9.206;2022-09-14T10:28:48;20.70;60.30
7970;DHT22;4030;52.362;9.206;2022-09-14T10:33:43;20.80;60.30
7970;DHT22;4030;52.362;9.206;2022-09-14T10:39:11;20.80;60.30
7970;DHT22;4030;52.362;9.206;2022-09-14T10:41:53;20.70;60.00
7970;DHT22;4030;52.362;9.206;2022-09-14T10:44:58;20.80;60.00
7970;DHT22;4030;52.362;9.206;2022-09-14T10:50:40;20.70;59.90
7970;DHT22;4030;52.362;9.206;2022-09-14T10:56:09;20.90;60.00
7970;DHT22;4030;52.362;9.206;2022-09-14T11:05:11;20.90;59.70
7970;DHT22;4030;52.362;9.206;2022-09-14T11:08:12;20.70;59.50
7970;DHT22;4030;52.362;9.206;2022-09-14T11:20:11;21.10;59.80
7970;DHT22;4030;52.362;9.206;2022-09-14T11:28:17;21.00;59.70
7970;DHT22;4030;52.362;9.206;2022-09-14T11:30:50;21.00;59.70
7970;DHT22;4030;52.362;9.206;2022-09-14T11:33:39;21.20;59.90
7970;DHT22;4030;52.362;9.206;2022-09-14T11:36:22;21.20;59.80
7970;DHT22;4030;52.362;9.206;2022-09-14T11:38:55;21.10;59.60
7970;DHT22;4030;52.362;9.206;2022-09-14T11:41:29;21.10;59.60
7970;DHT22;4030;52.362;9.206;2022-09-14T11:44:27;21.10;59.50
7970;DHT22;4030;52.362;9.206;2022-09-14T11:47:12;21.20;59.50
7970;DHT22;4030;52.362;9.206;2022-09-14T11:52:44;21.20;59.30
7970;DHT22;4030;52.362;9.206;2022-09-14T11:55:15;21.20;59.00
7970;DHT22;4030;52.362;9.206;2022-09-14T11:57:44;21.30;59.10
7970;DHT22;4030;52.362;9.206;2022-09-14T12:03:21;21.20;58.90
7970;DHT22;4030;52.362;9.206;2022-09-14T12:05:49;21.20;59.10
7970;DHT22;4030;52.362;9.206;2022-09-14T12:08:36;21.10;59.00
7970;DHT22;4030;52.362;9.206;2022-09-14T12:13:37;21.30;59.10
7970;DHT22;4030;52.362;9.206;2022-09-14T12:16:07;21.20;59.00
7970;DHT22;4030;52.362;9.206;2022-09-14T12:18:37;21.20;59.00
7970;DHT22;4030;52.362;9.206;2022-09-14T12:21:26;21.30;59.10
7970;DHT22;4030;52.362;9.206;2022-09-14T12:23:53;21.20;58.80
7970;DHT22;4030;52.362;9.206;2022-09-14T12:26:34;21.30;58.80
7970;DHT22;4030;52.362;9.206;2022-09-14T12:29:23;21.30;58.70
7970;DHT22;4030;52.362;9.206;2022-09-14T12:39:24;21.20;58.30
7970;DHT22;4030;52.362;9.206;2022-09-14T12:44:37;21.30;58.30
7970;DHT22;4030;52.362;9.206;2022-09-14T12:50:19;21.30;58.30
7970;DHT22;4030;52.362;9.206;2022-09-14T12:58:33;21.20;58.10
7970;DHT22;4030;52.362;9.206;2022-09-14T13:04:04;21.30;58.30
7970;DHT22;4030;52.362;9.206;2022-09-14T13:06:45;21.30;58.30
7970;DHT22;4030;52.362;9.206;2022-09-14T13:09:25;21.20;58.20
7970;DHT22;4030;52.362;9.206;2022-09-14T13:12:04;21.20;58.20
7970;DHT22;4030;52.362;9.206;2022-09-14T13:14:55;21.30;58.30
7970;DHT22;4030;52.362;9.206;2022-09-14T13:19:58;21.20;58.20
7970;DHT22;4030;52.362;9.206;2022-09-14T13:22:27;21.20;58.20
7970;DHT22;4030;52.362;9.206;2022-09-14T13:24:56;21.20;58.20
7970;DHT22;4030;52.362;9.206;2022-09-14T13:30:23;21.30;58.30
7970;DHT22;4030;52.362;9.206;2022-09-14T13:32:52;21.10;58.00
7970;DHT22;4030;52.362;9.206;2022-09-14T13:35:32;21.20;58.10
7970;DHT22;4030;52.362;9.206;2022-09-14T13:38:07;21.20;58.00
7970;DHT22;4030;52.362;9.206;2022-09-14T13:43:04;21.20;57.90
7970;DHT22;4030;52.362;9.206;2022-09-14T13:45:30;21.20;57.90
7970;DHT22;4030;52.362;9.206;2022-09-14T13:47:57;21.20;58.00
7970;DHT22;4030;52.362;9.206;2022-09-14T13:50:23;21.30;58.00
7970;DHT22;4030;52.362;9.206;2022-09-14T13:55:27;21.20;57.80
7970;DHT22;4030;52.362;9.206;2022-09-14T13:58:19;21.10;57.80
7970;DHT22;4030;52.362;9.206;2022-09-14T14:00:56;21.30;58.00
7970;DHT22;4030;52.362;9.206;2022-09-14T14:03:29;21.20;57.80
7970;DHT22;4030;52.362;9.206;2022-09-14T14:05:56;20.90;57.60
7970;DHT22;4030;52.362;9.206;2022-09-14T14:08:28;21.10;57.70
7970;DHT22;4030;52.362;9.206;2022-09-14T14:11:04;21.20;57.80
7970;DHT22;4030;52.362;9.206;2022-09-14T14:13:33;21.20;57.70
7970;DHT22;4030;52.362;9.206;2022-09-14T14:16:22;20.90;57.50
7970;DHT22;4030;52.362;9.206;2022-09-14T14:18:55;21.30;57.80
7970;DHT22;4030;52.362;9.206;2022-09-14T14:26:24;21.20;57.60
7970;DHT22;4030;52.362;9.206;2022-09-14T14:28:52;21.10;57.50
7970;DHT22;4030;52.362;9.206;2022-09-14T14:31:20;21.20;57.60
7970;DHT22;4030;52.362;9.206;2022-09-14T14:33:48;21.00;57.40
7970;DHT22;4030;52.362;9.206;2022-09-14T14:38:43;21.00;57.40
7970;DHT22;4030;52.362;9.206;2022-09-14T14:41:18;21.10;57.40
7970;DHT22;4030;52.362;9.206;2022-09-14T14:43:45;21.00;57.40
7970;DHT22;4030;52.362;9.206;2022-09-14T14:46:13;21.10;57.40
7970;DHT22;4030;52.362;9.206;2022-09-14T14:48:39;21.20;57.50
7970;DHT22;4030;52.362;9.206;2022-09-14T14:51:05;21.20;57.50
7970;DHT22;4030;52.362;9.206;2022-09-14T14:53:31;21.10;57.40
7970;DHT22;4030;52.362;9.206;2022-09-14T14:55:57;21.20;57.50
7970;DHT22;4030;52.362;9.206;2022-09-14T14:58:23;21.10;57.40
7970;DHT22;4030;52.362;9.206;2022-09-14T15:03:16;21.10;57.40
7970;DHT22;4030;52.362;9.206;2022-09-14T15:05:44;21.00;57.20
7970;DHT22;4030;52.362;9.206;2022-09-14T15:08:12;21.20;57.40
7970;DHT22;4030;52.362;9.206;2022-09-14T15:10:39;21.10;57.30
7970;DHT22;4030;52.362;9.206;2022-09-14T15:13:05;21.10;57.30
7970;DHT22;4030;52.362;9.206;2022-09-14T15:15:32;21.00;57.30
7970;DHT22;4030;52.362;9.206;2022-09-14T15:17:58;20.90;57.20
7970;DHT22;4030;52.362;9.206;2022-09-14T15:20:24;21.00;57.20
7970;DHT22;4030;52.362;9.206;2022-09-14T15:25:19;21.00;57.10
7970;DHT22;4030;52.362;9.206;2022-09-14T15:27:45;21.00;57.10
7970;DHT22;4030;52.362;9.206;2022-09-14T15:30:12;21.20;57.20
7970;DHT22;4030;52.362;9.206;2022-09-14T15:32:39;20.90;57.00
7970;DHT22;4030;52.362;9.206;2022-09-14T15:35:06;21.00;57.00
7970;DHT22;4030;52.362;9.206;2022-09-14T15:37:34;21.10;57.10
7970;DHT22;4030;52.362;9.206;2022-09-14T15:40:00;21.10;57.10
7970;DHT22;4030;52.362;9.206;2022-09-14T15:44:51;21.10;57.10
7970;DHT22;4030;52.362;9.206;2022-09-14T15:47:18;21.10;57.00
7970;DHT22;4030;52.362;9.206;2022-09-14T15:52:10;21.00;56.90
7970;DHT22;4030;52.362;9.206;2022-09-14T15:54:37;21.00;56.90
7970;DHT22;4030;52.362;9.206;2022-09-14T15:57:05;21.00;56.90
7970;DHT22;4030;52.362;9.206;2022-09-14T15:59:33;21.00;57.00
7970;DHT22;4030;52.362;9.206;2022-09-14T16:01:59;20.90;56.90
7970;DHT22;4030;52.362;9.206;2022-09-14T16:04:25;21.00;57.00
7970;DHT22;4030;52.362;9.206;2022-09-14T16:06:52;21.00;56.90
7970;DHT22;4030;52.362;9.206;2022-09-14T16:09:18;20.90;56.80
7970;DHT22;4030;52.362;9.206;2022-09-14T16:14:12;21.00;56.90
7970;DHT22;4030;52.362;9.206;2022-09-14T16:16:39;21.00;56.90
7970;DHT22;4030;52.362;9.206;2022-09-14T16:19:07;21.00;56.90
7970;DHT22;4030;52.362;9.206;2022-09-14T16:21:35;20.80;56.80
7970;DHT22;4030;52.362;9.206;2022-09-14T16:24:04;20.80;56.80
7970;DHT22;4030;52.362;9.206;2022-09-14T16:26:34;20.80;56.80
7970;DHT22;4030;52.362;9.206;2022-09-14T16:31:30;20.90;56.90
7970;DHT22;4030;52.362;9.206;2022-09-14T16:33:59;20.80;56.80
7970;DHT22;4030;52.362;9.206;2022-09-14T16:36:37;20.90;56.90
7970;DHT22;4030;52.362;9.206;2022-09-14T16:39:07;20.90;56.90
7970;DHT22;4030;52.362;9.206;2022-09-14T16:41:35;21.00;57.10
7970;DHT22;4030;52.362;9.206;2022-09-14T16:46:31;21.00;57.10
7970;DHT22;4030;52.362;9.206;2022-09-14T16:48:57;20.70;56.80
7970;DHT22;4030;52.362;9.206;2022-09-14T16:51:26;20.90;57.00
7970;DHT22;4030;52.362;9.206;2022-09-14T16:53:53;20.90;57.30
7970;DHT22;4030;52.362;9.206;2022-09-14T16:56:22;20.90;57.40
7970;DHT22;4030;52.362;9.206;2022-09-14T16:58:50;20.90;57.40
7970;DHT22;4030;52.362;9.206;2022-09-14T17:01:21;20.80;57.50
7970;DHT22;4030;52.362;9.206;2022-09-14T17:03:51;20.70;57.40
7970;DHT22;4030;52.362;9.206;2022-09-14T17:06:21;20.90;57.50
7970;DHT22;4030;52.362;9.206;2022-09-14T17:08:51;20.90;57.60
7970;DHT22;4030;52.362;9.206;2022-09-14T17:11:18;20.70;57.30
7970;DHT22;4030;52.362;9.206;2022-09-14T17:13:45;20.80;57.40
7970;DHT22;4030;52.362;9.206;2022-09-14T17:16:14;20.70;57.30
7970;DHT22;4030;52.362;9.206;2022-09-14T17:18:42;20.80;57.40
7970;DHT22;4030;52.362;9.206;2022-09-14T17:21:11;20.70;57.30
7970;DHT22;4030;52.362;9.206;2022-09-14T17:23:39;20.70;57.40
7970;DHT22;4030;52.362;9.206;2022-09-14T17:26:06;20.80;57.40
7970;DHT22;4030;52.362;9.206;2022-09-14T17:28:34;20.70;57.30
7970;DHT22;4030;52.362;9.206;2022-09-14T17:31:02;20.70;57.30
7970;DHT22;4030;52.362;9.206;2022-09-14T17:33:29;20.60;57.30
7970;DHT22;4030;52.362;9.206;2022-09-14T17:35:57;20.70;57.40
7970;DHT22;4030;52.362;9.206;2022-09-14T17:38:25;20.70;57.50
7970;DHT22;4030;52.362;9.206;2022-09-14T17:41:06;20.50;57.30
7970;DHT22;4030;52.362;9.206;2022-09-14T17:43:35;20.40;57.30
7970;DHT22;4030;52.362;9.206;2022-09-14T17:46:02;20.40;57.30
7970;DHT22;4030;52.362;9.206;2022-09-14T17:48:33;20.50;57.50
7970;DHT22;4030;52.362;9.206;2022-09-14T17:51:04;20.50;57.40
7970;DHT22;4030;52.362;9.206;2022-09-14T17:56:03;20.40;57.40
7970;DHT22;4030;52.362;9.206;2022-09-14T17:58:30;20.30;57.40
7970;DHT22;4030;52.362;9.206;2022-09-14T18:01:17;20.30;57.40
7970;DHT22;4030;52.362;9.206;2022-09-14T18:03:52;20.40;57.40
7970;DHT22;4030;52.362;9.206;2022-09-14T18:06:20;20.40;57.50
7970;DHT22;4030;52.362;9.206;2022-09-14T18:08:51;20.40;57.50
7970;DHT22;4030;52.362;9.206;2022-09-14T18:11:19;20.30;57.40
7970;DHT22;4030;52.362;9.206;2022-09-14T18:13:47;20.10;57.30
7970;DHT22;4030;52.362;9.206;2022-09-14T18:16:14;20.00;57.30
7970;DHT22;4030;52.362;9.206;2022-09-14T18:23:35;20.20;57.60
7970;DHT22;4030;52.362;9.206;2022-09-14T18:26:03;20.30;57.70
7970;DHT22;4030;52.362;9.206;2022-09-14T18:28:29;19.90;57.40
7970;DHT22;4030;52.362;9.206;2022-09-14T18:31:03;20.10;57.60
7970;DHT22;4030;52.362;9.206;2022-09-14T18:33:31;20.10;57.60
7970;DHT22;4030;52.362;9.206;2022-09-14T18:35:57;20.00;57.60
7970;DHT22;4030;52.362;9.206;2022-09-14T18:40:49;20.10;57.70
7970;DHT22;4030;52.362;9.206;2022-09-14T18:43:15;20.10;57.70
7970;DHT22;4030;52.362;9.206;2022-09-14T18:45:42;20.00;57.70
7970;DHT22;4030;52.362;9.206;2022-09-14T18:48:09;19.90;57.60
7970;DHT22;4030;52.362;9.206;2022-09-14T18:50:37;19.90;57.70
7970;DHT22;4030;52.362;9.206;2022-09-14T18:53:03;20.00;57.80
7970;DHT22;4030;52.362;9.206;2022-09-14T18:55:31;19.90;57.70
7970;DHT22;4030;52.362;9.206;2022-09-14T19:02:51;19.80;57.80
7970;DHT22;4030;52.362;9.206;2022-09-14T19:07:44;19.50;57.70
7970;DHT22;4030;52.362;9.206;2022-09-14T19:10:10;19.70;57.90
7970;DHT22;4030;52.362;9.206;2022-09-14T19:17:28;19.80;58.00
7970;DHT22;4030;52.362;9.206;2022-09-14T19:24:46;19.60;57.90
7970;DHT22;4030;52.362;9.206;2022-09-14T19:27:11;19.70;58.10
7970;DHT22;4030;52.362;9.206;2022-09-14T19:29:37;19.60;58.00
7970;DHT22;4030;52.362;9.206;2022-09-14T19:32:03;19.60;58.10
7970;DHT22;4030;52.362;9.206;2022-09-14T19:39:22;19.60;58.10
7970;DHT22;4030;52.362;9.206;2022-09-14T19:44:15;19.50;58.10
7970;DHT22;4030;52.362;9.206;2022-09-14T19:49:15;19.30;57.90
7970;DHT22;4030;52.362;9.206;2022-09-14T19:54:09;19.40;58.10
7970;DHT22;4030;52.362;9.206;2022-09-14T19:56:35;19.60;58.30
7970;DHT22;4030;52.362;9.206;2022-09-14T19:59:03;19.40;58.10
7970;DHT22;4030;52.362;9.206;2022-09-14T20:01:31;19.30;58.10
7970;DHT22;4030;52.362;9.206;2022-09-14T20:03:57;19.20;58.00
7970;DHT22;4030;52.362;9.206;2022-09-14T20:06:28;19.30;58.10
7970;DHT22;4030;52.362;9.206;2022-09-14T20:08:58;19.40;58.30
7970;DHT22;4030;52.362;9.206;2022-09-14T20:11:30;19.30;58.30
7970;DHT22;4030;52.362;9.206;2022-09-14T20:13:58;19.30;58.30
7970;DHT22;4030;52.362;9.206;2022-09-14T20:18:58;19.30;58.40
7970;DHT22;4030;52.362;9.206;2022-09-14T20:23:55;19.20;58.30
7970;DHT22;4030;52.362;9.206;2022-09-14T20:26:23;19.20;58.40
7970;DHT22;4030;52.362;9.206;2022-09-14T20:31:16;19.20;58.50
7970;DHT22;4030;52.362;9.206;2022-09-14T20:36:13;19.10;58.50
7970;DHT22;4030;52.362;9.206;2022-09-14T20:38:42;18.90;58.40
7970;DHT22;4030;52.362;9.206;2022-09-14T20:41:09;19.10;58.50
7970;DHT22;4030;52.362;9.206;2022-09-14T20:43:36;19.10;58.50
7970;DHT22;4030;52.362;9.206;2022-09-14T20:46:05;19.10;58.60
7970;DHT22;4030;52.362;9.206;2022-09-14T20:48:33;19.10;58.70
7970;DHT22;4030;52.362;9.206;2022-09-14T20:50:59;19.00;58.60
7970;DHT22;4030;52.362;9.206;2022-09-14T20:53:27;19.00;58.70
7970;DHT22;4030;52.362;9.206;2022-09-14T20:56:06;19.00;58.70
7970;DHT22;4030;52.362;9.206;2022-09-14T20:58:33;19.10;58.80
7970;DHT22;4030;52.362;9.206;2022-09-14T21:01:04;19.00;58.70
7970;DHT22;4030;52.362;9.206;2022-09-14T21:03:32;19.00;58.80
7970;DHT22;4030;52.362;9.206;2022-09-14T21:06:00;19.00;58.90
7970;DHT22;4030;52.362;9.206;2022-09-14T21:08:28;19.10;59.00